Time;durP1;ratioP1;P1;durP2;ratioP2;P2;SDS_P1;SDS_P2;PMS_P1;PMS_P2;Temp;Humidity;BMP_temperature;BMP_pressure;BME280_temperature;BME280_humidity;BME280_pressure;Samples;Min_cycle;Max_cycle;Signal;HPM_P1;HPM_P2
2022/08/19 00:01:24;;;;;;;;;;;;;;;17.86;100.00;101371.81;5114195;28;19924;-31
2022/08/19 00:03:56;;;;;;;;;;;;;;;17.84;100.00;101369.34;5115956;28;19947;-32
2022/08/19 00:06:24;;;;;;;;;;;;;;;17.82;100.00;101365.19;5115462;28;20438;-31
2022/08/19 00:08:53;;;;;;;;;;;;;;;17.80;100.00;101371.16;5115047;28;19931;-29
2022/08/19 00:11:20;;;;;;;;;;;;;;;17.78;100.00;101365.06;5115481;28;19928;-39
2022/08/19 00:13:53;;;;;;;;;;;;;;;17.77;100.00;101365.38;5115172;28;19931;-31
2022/08/19 00:16:23;;;;;;;;;;;;;;;17.74;100.00;101371.69;5114965;28;19924;-32
2022/08/19 00:18:54;;;;;;;;;;;;;;;17.72;100.00;101372.03;5112602;28;19931;-32
2022/08/19 00:21:22;;;;;;;;;;;;;;;17.71;100.00;101369.53;5114575;28;19928;-36
2022/08/19 00:23:50;;;;;;;;;;;;;;;17.70;100.00;101382.00;5115399;28;19936;-36
2022/08/19 00:26:19;;;;;;;;;;;;;;;17.68;100.00;101382.34;5114932;28;19924;-40
2022/08/19 00:28:47;;;;;;;;;;;;;;;17.68;100.00;101378.69;5114720;28;20385;-31
2022/08/19 00:31:16;;;;;;;;;;;;;;;17.66;100.00;101381.00;5115193;28;19930;-39
2022/08/19 00:33:43;;;;;;;;;;;;;;;17.64;100.00;101374.81;5115185;28;19923;-32
2022/08/19 00:36:12;;;;;;;;;;;;;;;17.62;100.00;101377.97;5114316;28;20440;-31
2022/08/19 00:38:42;;;;;;;;;;;;;;;17.61;100.00;101367.84;5114745;28;19930;-32
2022/08/19 00:41:10;;;;;;;;;;;;;;;17.60;100.00;101365.38;5115107;28;19934;-32
2022/08/19 00:43:40;;;;;;;;;;;;;;;17.59;100.00;101367.34;5114641;28;19924;-34
2022/08/19 00:46:08;;;;;;;;;;;;;;;17.58;100.00;101363.69;5114911;28;20294;-31
2022/08/19 00:48:36;;;;;;;;;;;;;;;17.58;100.00;101356.44;5114556;28;19931;-37
2022/08/19 00:51:05;;;;;;;;;;;;;;;17.55;100.00;101358.75;5114469;28;19924;-33
2022/08/19 00:53:33;;;;;;;;;;;;;;;17.56;100.00;101356.75;5114235;28;19934;-34
2022/08/19 00:56:01;;;;;;;;;;;;;;;17.55;100.00;101364.41;5114825;28;19935;-34
2022/08/19 00:58:30;;;;;;;;;;;;;;;17.55;100.00;101369.22;5114215;28;20377;-36
2022/08/19 01:01:00;;;;;;;;;;;;;;;17.54;100.00;101367.56;5114795;28;19924;-33
2022/08/19 01:03:28;;;;;;;;;;;;;;;17.52;100.00;101367.88;5112792;28;19971;-36
2022/08/19 01:06:16;;;;;;;;;;;;;;;17.51;100.00;101363.41;5112599;28;19931;-31
2022/08/19 01:08:47;;;;;;;;;;;;;;;17.51;100.00;101371.88;5110942;28;19954;-37
2022/08/19 01:11:17;;;;;;;;;;;;;;;17.52;100.00;101372.69;5114251;28;20010;-30
2022/08/19 01:13:45;;;;;;;;;;;;;;;17.51;100.00;101369.03;5114021;28;19930;-35
2022/08/19 01:16:20;;;;;;;;;;;;;;;17.50;100.00;101369.38;5114205;28;20349;-39
2022/08/19 01:18:47;;;;;;;;;;;;;;;17.48;100.00;101361.25;5114099;28;19928;-34
2022/08/19 01:21:28;;;;;;;;;;;;;;;17.49;100.00;101362.91;5114658;28;19924;-39
2022/08/19 01:23:56;;;;;;;;;;;;;;;17.50;100.00;101363.72;5113923;28;19930;-35
2022/08/19 01:26:25;;;;;;;;;;;;;;;17.47;100.00;101359.59;5113633;28;19924;-37
2022/08/19 01:28:54;;;;;;;;;;;;;;;17.46;100.00;101346.63;5114161;28;19923;-37
2022/08/19 01:31:30;;;;;;;;;;;;;;;17.44;100.00;101354.59;5113475;28;19928;-34
2022/08/19 01:33:59;;;;;;;;;;;;;;;17.43;100.00;101352.94;5114126;28;19924;-32
2022/08/19 01:36:28;;;;;;;;;;;;;;;17.42;100.00;101351.28;5113783;28;19924;-39
2022/08/19 01:38:57;;;;;;;;;;;;;;;17.41;100.00;101355.25;5113451;28;19924;-34
2022/08/19 01:41:26;;;;;;;;;;;;;;;17.41;100.00;101366.53;5114188;28;20014;-33
2022/08/19 01:43:54;;;;;;;;;;;;;;;17.40;100.00;101364.88;5113647;28;19951;-31
2022/08/19 01:46:41;;;;;;;;;;;;;;;17.39;100.00;101356.75;5113092;28;19931;-37
2022/08/19 01:49:09;;;;;;;;;;;;;;;17.37;100.00;101359.94;5112905;28;19924;-29
2022/08/19 01:51:37;;;;;;;;;;;;;;;17.37;100.00;101359.94;5113256;28;19955;-37
2022/08/19 01:54:07;;;;;;;;;;;;;;;17.35;100.00;101362.25;5112925;28;19924;-37
2022/08/19 01:56:35;;;;;;;;;;;;;;;17.34;100.00;101369.06;5113656;28;19967;-40
2022/08/19 01:59:05;;;;;;;;;;;;;;;17.34;100.00;101377.53;5113323;28;19997;-31
2022/08/19 02:01:33;;;;;;;;;;;;;;;17.35;100.00;101364.25;5112999;28;19969;-31
2022/08/19 02:04:01;;;;;;;;;;;;;;;17.34;100.00;101374.69;5113247;28;19962;-41
2022/08/19 02:06:29;;;;;;;;;;;;;;;17.33;100.00;101358.94;5112805;28;19953;-38
2022/08/19 02:08:56;;;;;;;;;;;;;;;17.33;100.00;101367.41;5112721;28;19924;-31
2022/08/19 02:11:27;;;;;;;;;;;;;;;17.32;100.00;101362.91;5112984;28;19969;-33
2022/08/19 02:13:55;;;;;;;;;;;;;;;17.33;100.00;101372.22;5112848;28;19932;-35
2022/08/19 02:16:22;;;;;;;;;;;;;;;17.32;100.00;101368.56;5113225;28;20277;-32
2022/08/19 02:18:51;;;;;;;;;;;;;;;17.33;100.00;101375.88;5112783;28;19932;-42
2022/08/19 02:21:19;;;;;;;;;;;;;;;17.31;100.00;101364.09;5112471;28;20296;-38
2022/08/19 02:23:47;;;;;;;;;;;;;;;17.32;100.00;101362.91;5113184;28;19939;-37
2022/08/19 02:26:15;;;;;;;;;;;;;;;17.32;100.00;101356.44;5112670;28;20026;-41
2022/08/19 02:28:44;;;;;;;;;;;;;;;17.31;100.00;101352.78;5111332;28;19930;-32
2022/08/19 02:31:12;;;;;;;;;;;;;;;17.31;100.00;101349.97;5112473;28;19928;-32
2022/08/19 02:33:40;;;;;;;;;;;;;;;17.32;100.00;101351.63;5112574;28;19930;-38
2022/08/19 02:36:08;;;;;;;;;;;;;;;17.32;100.00;101346.00;5112525;28;19931;-33
2022/08/19 02:38:36;;;;;;;;;;;;;;;17.31;100.00;101349.97;5112830;28;20376;-33
2022/08/19 02:41:05;;;;;;;;;;;;;;;17.32;100.00;101354.47;5111141;28;19928;-39
2022/08/19 02:43:35;;;;;;;;;;;;;;;17.32;100.00;101346.00;5110558;28;19931;-32
2022/08/19 02:46:12;;;;;;;;;;;;;;;17.33;100.00;101349.66;5112427;28;20373;-34
2022/08/19 02:48:39;;;;;;;;;;;;;;;17.33;100.00;101347.66;5112525;28;20015;-32
2022/08/19 02:51:07;;;;;;;;;;;;;;;17.33;100.00;101347.66;5112395;28;19946;-34
2022/08/19 02:53:35;;;;;;;;;;;;;;;17.34;100.00;101343.66;5112464;28;19972;-32
2022/08/19 02:56:06;;;;;;;;;;;;;;;17.34;100.00;101340.03;5111761;28;20285;-40
2022/08/19 02:58:34;;;;;;;;;;;;;;;17.34;100.00;101329.56;5112373;28;19931;-39
2022/08/19 03:01:02;;;;;;;;;;;;;;;17.36;100.00;101332.88;5112007;28;19934;-31
2022/08/19 03:03:31;;;;;;;;;;;;;;;17.36;100.00;101330.06;5111933;28;19924;-34
2022/08/19 03:06:06;;;;;;;;;;;;;;;17.37;100.00;101326.09;5112665;28;19930;-32
2022/08/19 03:08:34;;;;;;;;;;;;;;;17.38;100.00;101324.91;5111764;28;19931;-31
2022/08/19 03:11:01;;;;;;;;;;;;;;;17.38;100.00;101316.47;5109932;28;19923;-40
2022/08/19 03:13:29;;;;;;;;;;;;;;;17.38;100.00;101310.81;5110688;28;19931;-40
2022/08/19 03:15:56;;;;;;;;;;;;;;;17.40;100.00;101316.09;5110246;28;20471;-32
2022/08/19 03:18:24;;;;;;;;;;;;;;;17.41;100.00;101310.13;5109767;28;19925;-37
2022/08/19 03:20:55;;;;;;;;;;;;;;;17.42;100.00;101300.50;5110331;28;19924;-32
2022/08/19 03:23:23;;;;;;;;;;;;;;;17.44;100.00;101306.63;5111352;28;20621;-33
2022/08/19 03:25:52;;;;;;;;;;;;;;;17.45;100.00;101299.81;5110843;28;19931;-37
2022/08/19 03:28:40;;;;;;;;;;;;;;;17.47;100.00;101300.31;5110706;28;19935;-41
2022/08/19 03:31:09;;;;;;;;;;;;;;;17.46;100.00;101301.50;5111467;28;19931;-31
2022/08/19 03:33:57;;;;;;;;;;;;;;;17.47;100.00;101297.50;5111194;28;19931;-31
2022/08/19 03:36:27;;;;;;;;;;;;;;;17.46;100.00;101301.50;5111948;28;19923;-32
2022/08/19 03:38:57;;;;;;;;;;;;;;;17.48;100.00;101299.16;5111702;28;20395;-32
2022/08/19 03:41:28;;;;;;;;;;;;;;;17.46;100.00;101304.31;5112342;28;19924;-36
2022/08/19 03:44:12;;;;;;;;;;;;;;;17.47;100.00;101305.97;5111962;28;20022;-33
2022/08/19 03:46:45;;;;;;;;;;;;;;;17.48;100.00;101304.81;5111535;28;19924;-41
2022/08/19 03:49:13;;;;;;;;;;;;;;;17.47;100.00;101308.78;5111859;28;20022;-35
2022/08/19 03:51:43;;;;;;;;;;;;;;;17.46;100.00;101303.47;5112023;28;19928;-33
2022/08/19 03:54:11;;;;;;;;;;;;;;;17.44;100.00;101306.63;5110738;28;20296;-32
2022/08/19 03:56:40;;;;;;;;;;;;;;;17.43;100.00;101316.25;5112100;28;19930;-33
2022/08/19 03:59:11;;;;;;;;;;;;;;;17.42;100.00;101302.50;5111432;28;19928;-35
2022/08/19 04:01:38;;;;;;;;;;;;;;;17.42;100.00;101310.94;5112332;28;19924;-32
2022/08/19 04:04:06;;;;;;;;;;;;;;;17.40;100.00;101310.44;5111388;28;20008;-32
2022/08/19 04:06:36;;;;;;;;;;;;;;;17.39;100.00;101314.44;5111069;28;20015;-36
2022/08/19 04:09:09;;;;;;;;;;;;;;;17.36;100.00;101318.78;5111771;28;19951;-33
2022/08/19 04:11:41;;;;;;;;;;;;;;;17.34;100.00;101317.44;5108492;28;20287;-31
2022/08/19 04:14:12;;;;;;;;;;;;;;;17.33;100.00;101325.09;5110292;28;19977;-39
2022/08/19 04:16:40;;;;;;;;;;;;;;;17.30;100.00;101322.09;5115075;28;19924;-31
2022/08/19 04:19:08;;;;;;;;;;;;;;;17.31;100.00;101316.13;5115142;28;19931;-36
2022/08/19 04:21:35;;;;;;;;;;;;;;;17.32;100.00;101320.59;5114700;28;20324;-31
2022/08/19 04:24:03;;;;;;;;;;;;;;;17.34;100.00;101323.09;5115401;28;19924;-35
2022/08/19 04:26:34;;;;;;;;;;;;;;;17.33;100.00;101315.78;5115128;28;20277;-35
2022/08/19 04:29:04;;;;;;;;;;;;;;;17.34;100.00;101323.09;5114789;28;19924;-36
2022/08/19 04:31:38;;;;;;;;;;;;;;;17.34;100.00;101314.63;5113939;28;19928;-34
2022/08/19 04:34:07;;;;;;;;;;;;;;;17.34;100.00;101318.28;5114884;28;20026;-37
2022/08/19 04:36:36;;;;;;;;;;;;;;;17.35;100.00;101310.66;5114429;28;19930;-36
2022/08/19 04:39:05;;;;;;;;;;;;;;;17.37;100.00;101319.63;5113758;28;19928;-31
2022/08/19 04:44:19;;;;;;;;;;;;;;;17.37;100.00;101317.63;5115089;28;19930;-31
2022/08/19 04:46:47;;;;;;;;;;;;;;;17.39;100.00;101318.09;5114443;28;19992;-36
2022/08/19 04:49:19;;;;;;;;;;;;;;;17.42;100.00;101322.25;5114528;28;19924;-34
2022/08/19 04:51:48;;;;;;;;;;;;;;;17.43;100.00;101319.09;5114570;28;19924;-34
2022/08/19 04:54:16;;;;;;;;;;;;;;;17.44;100.00;101320.75;5113135;28;20290;-35
2022/08/19 04:57:06;;;;;;;;;;;;;;;17.46;100.00;101314.75;5103922;28;19931;-36
2022/08/19 04:59:34;;;;;;;;;;;;;;;17.49;100.00;101311.28;5114256;28;19973;-32
2022/08/19 05:02:02;;;;;;;;;;;;;;;17.52;100.00;101310.63;5113720;28;19927;-34
2022/08/19 05:04:31;;;;;;;;;;;;;;;17.56;100.00;101303.97;5113661;28;20295;-32
2022/08/19 05:07:00;;;;;;;;;;;;;;;17.60;100.00;101303.28;5114444;28;19946;-31
2022/08/19 05:09:29;;;;;;;;;;;;;;;17.65;100.00;101306.78;5113732;28;20399;-32
2022/08/19 05:12:18;;;;;;;;;;;;;;;17.69;100.00;101316.25;5114657;28;19999;-32
2022/08/19 05:14:47;;;;;;;;;;;;;;;17.73;100.00;101317.25;5102905;27;20369;-32
2022/08/19 05:17:15;;;;;;;;;;;;;;;17.78;100.00;101316.22;5113427;28;19938;-35
2022/08/19 05:22:49;;;;;;;;;;;;;;;17.88;100.00;101313.03;5112104;28;19931;-34
2022/08/19 05:25:19;;;;;;;;;;;;;;;17.93;100.00;101324.16;5113639;28;19924;-34
2022/08/19 05:27:48;;;;;;;;;;;;;;;17.98;100.00;101323.97;5113862;28;20298;-38
2022/08/19 05:30:16;;;;;;;;;;;;;;;18.04;100.00;101321.78;5113766;28;20030;-33
2022/08/19 05:32:45;;;;;;;;;;;;;;;18.08;100.00;101319.94;5113261;28;19934;-37
2022/08/19 05:35:12;;;;;;;;;;;;;;;18.13;100.00;101319.75;5113790;28;19960;-32
2022/08/19 05:37:40;;;;;;;;;;;;;;;18.18;100.00;101326.03;5113349;28;19931;-39
2022/08/19 05:40:08;;;;;;;;;;;;;;;18.22;100.00;101327.00;5113752;28;19924;-33
2022/08/19 05:42:37;;;;;;;;;;;;;;;18.26;100.00;101318.69;5113090;28;20349;-32
2022/08/19 05:45:06;;;;;;;;;;;;;;;18.31;100.00;101318.50;5112777;28;20296;-36
2022/08/19 05:47:34;;;;;;;;;;;;;;;18.36;100.00;101323.13;5113310;28;19927;-41
2022/08/19 05:50:08;;;;;;;;;;;;;;;18.40;100.00;101318.44;5113233;28;20008;-31
2022/08/19 05:52:37;;;;;;;;;;;;;;;18.44;100.00;101322.25;5112932;28;19931;-39
2022/08/19 05:55:12;;;;;;;;;;;;;;;18.49;100.00;101319.22;5111535;28;19924;-32
2022/08/19 05:57:40;;;;;;;;;;;;;;;18.55;100.00;101315.03;5113241;28;19924;-42
2022/08/19 06:00:11;;;;;;;;;;;;;;;18.62;100.00;101321.00;5112882;28;19931;-39
2022/08/19 06:02:39;;;;;;;;;;;;;;;18.69;100.00;101318.47;5112718;28;19928;-34
2022/08/19 06:05:08;;;;;;;;;;;;;;;18.78;100.00;101324.91;5112882;28;19969;-33
2022/08/19 06:07:37;;;;;;;;;;;;;;;18.87;100.00;101325.66;5112446;28;19959;-37
2022/08/19 06:10:05;;;;;;;;;;;;;;;18.96;100.00;101330.41;5113117;28;19928;-35
2022/08/19 06:12:34;;;;;;;;;;;;;;;19.04;100.00;101319.03;5113167;28;19924;-41
2022/08/19 06:15:04;;;;;;;;;;;;;;;19.15;100.00;101325.09;5112562;28;20038;-35
2022/08/19 06:17:34;;;;;;;;;;;;;;;19.25;100.00;101324.66;5112728;28;19924;-37
2022/08/19 06:20:02;;;;;;;;;;;;;;;19.37;100.00;101324.75;5112295;28;20273;-32
2022/08/19 06:22:29;;;;;;;;;;;;;;;19.54;100.00;101318.09;5112238;28;19924;-37
2022/08/19 06:24:57;;;;;;;;;;;;;;;19.74;100.00;101317.22;5112739;28;19924;-41
2022/08/19 06:27:25;;;;;;;;;;;;;;;19.98;100.00;101319.28;5112438;28;19932;-38
2022/08/19 06:29:52;;;;;;;;;;;;;;;20.16;100.00;101320.72;5112151;28;19962;-36
2022/08/19 06:32:20;;;;;;;;;;;;;;;20.30;100.00;101321.19;5100441;28;19936;-37
2022/08/19 06:34:49;;;;;;;;;;;;;;;20.46;100.00;101324.16;5111435;28;19928;-36
2022/08/19 06:37:17;;;;;;;;;;;;;;;20.60;100.00;101320.97;5111371;28;19931;-34
2022/08/19 06:39:44;;;;;;;;;;;;;;;20.72;100.00;101317.28;5111222;28;19938;-35
2022/08/19 06:42:16;;;;;;;;;;;;;;;20.83;100.00;101316.44;5111902;28;19923;-35
2022/08/19 06:44:45;;;;;;;;;;;;;;;20.95;100.00;101322.09;5112556;28;20042;-34
2022/08/19 06:47:17;;;;;;;;;;;;;;;21.14;100.00;101318.63;5111063;28;19927;-37
2022/08/19 06:49:53;;;;;;;;;;;;;;;21.35;100.00;101324.13;5111965;28;20078;-38
2022/08/19 06:52:27;;;;;;;;;;;;;;;21.51;100.00;101327.84;5111808;28;19924;-36
2022/08/19 06:54:57;;;;;;;;;;;;;;;21.65;100.00;101325.38;5112080;28;20400;-33
2022/08/19 06:57:26;;;;;;;;;;;;;;;21.81;100.00;101324.59;5112605;28;19924;-36
2022/08/19 06:59:56;;;;;;;;;;;;;;;22.00;100.00;101321.88;5111788;28;19930;-36
2022/08/19 07:02:26;;;;;;;;;;;;;;;22.23;100.00;101331.44;5111649;28;19931;-34
2022/08/19 07:04:57;;;;;;;;;;;;;;;22.44;100.00;101327.47;5112417;28;19924;-40
2022/08/19 07:07:25;;;;;;;;;;;;;;;22.76;100.00;101331.94;5112266;28;20023;-32
2022/08/19 07:09:53;;;;;;;;;;;;;;;23.08;100.00;101321.31;5111940;28;19935;-36
2022/08/19 07:12:28;;;;;;;;;;;;;;;23.44;100.00;101322.88;5112808;28;19924;-36
2022/08/19 07:14:57;;;;;;;;;;;;;;;23.82;100.00;101322.03;5112056;28;20022;-38
2022/08/19 07:17:26;;;;;;;;;;;;;;;24.26;100.00;101331.03;5111539;28;19927;-33
2022/08/19 07:19:55;;;;;;;;;;;;;;;24.56;100.00;101327.44;5112454;28;19934;-41
2022/08/19 07:22:23;;;;;;;;;;;;;;;24.88;100.00;101337.31;5111983;28;20386;-32
2022/08/19 07:24:51;;;;;;;;;;;;;;;25.02;100.00;101331.00;5111673;28;19924;-34
2022/08/19 07:27:19;;;;;;;;;;;;;;;24.98;100.00;101328.09;5112372;28;19927;-33
2022/08/19 07:29:51;;;;;;;;;;;;;;;24.98;100.00;101333.81;5112394;28;19924;-39
2022/08/19 07:32:25;;;;;;;;;;;;;;;25.16;100.00;101334.09;5110273;28;19939;-43
2022/08/19 07:34:54;;;;;;;;;;;;;;;25.42;100.00;101334.00;5111362;28;20026;-39
2022/08/19 07:37:23;;;;;;;;;;;;;;;25.81;100.00;101335.69;5110728;28;19924;-33
2022/08/19 07:39:55;;;;;;;;;;;;;;;26.17;100.00;101328.31;5111903;28;19928;-36
2022/08/19 07:42:23;;;;;;;;;;;;;;;26.56;100.00;101337.28;5111911;28;19969;-33
2022/08/19 07:44:51;;;;;;;;;;;;;;;26.77;100.00;101338.25;5111327;28;20010;-33
2022/08/19 07:47:18;;;;;;;;;;;;;;;26.80;100.00;101338.66;5113421;28;19970;-33
2022/08/19 07:50:10;;;;;;;;;;;;;;;27.01;100.00;101338.81;5105529;28;19927;-38
2022/08/19 07:52:39;;;;;;;;;;;;;;;27.39;100.00;101340.25;5115419;28;19928;-34
2022/08/19 07:55:08;;;;;;;;;;;;;;;27.71;99.84;101346.97;5115796;28;19923;-33
2022/08/19 07:57:55;;;;;;;;;;;;;;;27.98;97.04;101349.47;5105524;28;19928;-32
2022/08/19 08:00:23;;;;;;;;;;;;;;;28.16;91.06;101350.38;5115145;28;19931;-34
2022/08/19 08:02:51;;;;;;;;;;;;;;;28.25;91.64;101350.78;5115786;28;20002;-42
2022/08/19 08:11:11;;;;;;;;;;;;;;;29.01;85.66;101338.88;5108490;28;19955;-34
2022/08/19 08:13:41;;;;;;;;;;;;;;;29.01;79.64;101350.38;5114379;28;19936;-35
2022/08/19 08:16:09;;;;;;;;;;;;;;;29.20;83.21;101342.50;5115141;28;19924;-35
2022/08/19 08:18:43;;;;;;;;;;;;;;;29.39;82.60;101342.03;5115028;28;19924;-35
2022/08/19 08:21:20;;;;;;;;;;;;;;;29.62;78.16;101350.19;5114276;28;20444;-33
2022/08/19 08:23:48;;;;;;;;;;;;;;;29.69;80.62;101361.66;5114855;28;19928;-40
2022/08/19 08:26:19;;;;;;;;;;;;;;;29.98;78.33;101356.59;5114700;28;20393;-32
2022/08/19 08:28:48;;;;;;;;;;;;;;;30.24;76.42;101358.06;5114955;28;20273;-40
2022/08/19 08:31:16;;;;;;;;;;;;;;;30.53;74.84;101364.44;5114532;27;20365;-34
2022/08/19 08:33:43;;;;;;;;;;;;;;;30.73;70.29;101357.69;5114392;28;20396;-33
2022/08/19 08:36:13;;;;;;;;;;;;;;;31.00;72.54;101360.69;5114841;28;19946;-34
2022/08/19 08:38:45;;;;;;;;;;;;;;;31.32;70.10;101357.50;5114528;28;19942;-32
2022/08/19 08:41:19;;;;;;;;;;;;;;;31.36;68.33;101363.25;5111094;28;19924;-34
2022/08/19 08:43:48;;;;;;;;;;;;;;;31.40;64.29;101366.88;5113859;28;19935;-32
2022/08/19 08:46:18;;;;;;;;;;;;;;;31.37;67.75;101362.00;5113924;28;20312;-35
2022/08/19 08:49:01;;;;;;;;;;;;;;;31.36;66.99;101366.13;5113493;28;20010;-33
2022/08/19 08:51:30;;;;;;;;;;;;;;;31.41;64.91;101362.75;5113354;28;20339;-30
2022/08/19 08:54:06;;;;;;;;;;;;;;;31.21;63.58;101368.34;5113904;28;19927;-30
2022/08/19 08:56:38;;;;;;;;;;;;;;;31.08;65.44;101364.34;5113357;28;19924;-30
2022/08/19 08:59:09;;;;;;;;;;;;;;;31.06;69.33;101366.81;5114116;28;20258;-31
2022/08/19 09:01:38;;;;;;;;;;;;;;;31.27;65.41;101374.47;5113713;28;19934;-30
2022/08/19 09:04:06;;;;;;;;;;;;;;;31.20;67.55;101371.66;5114182;28;19931;-32
2022/08/19 09:06:38;;;;;;;;;;;;;;;31.17;63.21;101376.22;5113414;28;20297;-31
2022/08/19 09:09:14;;;;;;;;;;;;;;;30.88;61.66;101369.06;5112861;28;19924;-34
2022/08/19 09:11:51;;;;;;;;;;;;;;;30.78;67.07;101376.56;5111583;28;19924;-33
2022/08/19 09:14:25;;;;;;;;;;;;;;;30.80;66.91;101379.84;5113534;28;19924;-30
2022/08/19 09:17:13;;;;;;;;;;;;;;;31.11;67.65;101389.47;5112800;28;19927;-29
2022/08/19 09:19:49;;;;;;;;;;;;;;;31.50;65.75;101389.03;5113593;28;19930;-32
2022/08/19 09:22:16;;;;;;;;;;;;;;;31.77;62.67;101389.94;5113947;28;19928;-31
2022/08/19 09:24:54;;;;;;;;;;;;;;;31.92;62.54;101386.88;5112747;28;19931;-32
2022/08/19 09:27:23;;;;;;;;;;;;;;;31.95;57.69;101394.66;5113170;28;19923;-37
2022/08/19 09:30:11;;;;;;;;;;;;;;;31.40;55.81;101389.94;5112326;28;20022;-35
2022/08/19 09:32:41;;;;;;;;;;;;;;;30.88;58.14;101395.03;5113348;28;19931;-30
2022/08/19 09:35:09;;;;;;;;;;;;;;;30.25;59.63;101394.25;5113299;28;20022;-31
2022/08/19 09:37:38;;;;;;;;;;;;;;;29.89;63.00;101408.00;5112604;28;19927;-30
2022/08/19 09:40:08;;;;;;;;;;;;;;;29.55;64.17;101407.75;5113350;28;20410;-35
2022/08/19 09:42:38;;;;;;;;;;;;;;;29.39;65.84;101400.38;5110072;28;19924;-33
2022/08/19 09:45:20;;;;;;;;;;;;;;;29.74;71.30;101401.50;5108970;27;19985;-34
2022/08/19 09:47:48;;;;;;;;;;;;;;;30.33;69.94;101408.19;5113598;28;19997;-32
2022/08/19 09:50:17;;;;;;;;;;;;;;;30.82;64.00;101409.88;5107914;28;19932;-35
2022/08/19 09:52:45;;;;;;;;;;;;;;;30.70;59.63;101412.47;5112991;28;19924;-37
2022/08/19 09:55:25;;;;;;;;;;;;;;;30.53;62.64;101414.22;5112999;28;19946;-31
2022/08/19 09:57:59;;;;;;;;;;;;;;;30.59;63.80;101423.25;5113089;28;20038;-32
2022/08/19 10:00:27;;;;;;;;;;;;;;;30.52;63.01;101411.75;5113288;28;19932;-31
2022/08/19 10:02:54;;;;;;;;;;;;;;;30.29;62.37;101413.16;5113581;28;19924;-30
2022/08/19 10:08:09;;;;;;;;;;;;;;;30.18;64.02;101426.00;5113435;28;19931;-35
2022/08/19 10:10:43;;;;;;;;;;;;;;;30.16;66.07;101414.91;5112391;28;19923;-35
2022/08/19 10:13:14;;;;;;;;;;;;;;;29.96;63.14;101417.44;5112483;28;19931;-35
2022/08/19 10:15:41;;;;;;;;;;;;;;;29.74;66.72;101413.03;5112511;28;19931;-31
2022/08/19 10:18:15;;;;;;;;;;;;;;;29.80;68.57;101409.28;5113218;28;19924;-30
2022/08/19 10:20:45;;;;;;;;;;;;;;;29.98;67.29;101403.47;5112483;28;20073;-30
2022/08/19 10:23:18;;;;;;;;;;;;;;;30.00;65.01;101405.91;5112803;28;19923;-31
2022/08/19 10:25:47;;;;;;;;;;;;;;;29.78;64.83;101417.50;5113014;28;19969;-36
2022/08/19 10:28:16;;;;;;;;;;;;;;;29.63;66.63;101424.56;5112305;27;20011;-30
2022/08/19 10:30:46;;;;;;;;;;;;;;;29.25;64.65;101425.47;5112546;28;19924;-30
2022/08/19 10:33:14;;;;;;;;;;;;;;;28.99;69.31;101421.78;5111815;28;19927;-31
2022/08/19 10:36:02;;;;;;;;;;;;;;;28.66;67.48;101419.31;5112854;28;20444;-31
2022/08/19 10:38:31;;;;;;;;;;;;;;;28.47;70.72;101420.53;5112312;28;19924;-33
2022/08/19 10:41:06;;;;;;;;;;;;;;;28.42;71.07;101424.63;5112068;28;20341;-36
2022/08/19 10:43:37;;;;;;;;;;;;;;;28.27;71.39;101425.84;5112947;28;20373;-32
2022/08/19 10:46:05;;;;;;;;;;;;;;;28.09;72.99;101422.09;5112667;28;19931;-30
2022/08/19 10:48:40;;;;;;;;;;;;;;;28.10;74.26;101421.69;5102166;28;20399;-38
2022/08/19 10:53:55;;;;;;;;;;;;;;;28.34;75.75;101425.03;5102703;27;19931;-30
2022/08/19 10:59:12;;;;;;;;;;;;;;;28.31;72.18;101412.31;5136034;27;20285;-31
2022/08/19 11:01:39;;;;;;;;;;;;;;;28.13;73.30;101414.31;5111653;28;20270;-37
2022/08/19 11:04:09;;;;;;;;;;;;;;;27.95;74.53;101419.19;5112129;28;20010;-30
2022/08/19 11:06:38;;;;;;;;;;;;;;;27.71;73.56;101412.13;5112088;28;19930;-38
2022/08/19 11:09:06;;;;;;;;;;;;;;;27.49;75.70;101419.75;5111642;28;19923;-36
2022/08/19 11:11:39;;;;;;;;;;;;;;;27.50;78.74;101418.53;5112509;28;19924;-30
2022/08/19 11:14:06;;;;;;;;;;;;;;;27.56;77.59;101422.69;5112077;28;19935;-38
2022/08/19 11:16:34;;;;;;;;;;;;;;;27.55;79.10;101423.91;5112041;28;19924;-40
2022/08/19 11:19:02;;;;;;;;;;;;;;;27.49;77.35;101430.41;5112241;28;20292;-35
2022/08/19 11:21:33;;;;;;;;;;;;;;;27.60;78.62;101426.38;5114417;28;19931;-32
2022/08/19 11:24:03;;;;;;;;;;;;;;;27.60;76.84;101425.56;5115920;28;19923;-40
2022/08/19 11:26:31;;;;;;;;;;;;;;;27.51;77.33;101423.06;5116233;28;19924;-33
2022/08/19 11:29:00;;;;;;;;;;;;;;;27.67;79.09;101423.56;5106923;27;19928;-34
2022/08/19 11:31:30;;;;;;;;;;;;;;;28.07;79.00;101415.94;5114789;28;19927;-31
2022/08/19 11:33:59;;;;;;;;;;;;;;;28.41;75.43;101419.28;5115263;28;19927;-32
2022/08/19 11:36:27;;;;;;;;;;;;;;;28.52;73.27;101420.16;5111385;28;19989;-37
2022/08/19 11:38:55;;;;;;;;;;;;;;;28.65;73.39;101418.50;5115154;28;20377;-31
2022/08/19 11:41:24;;;;;;;;;;;;;;;28.91;73.04;101419.34;5114491;28;19923;-30
2022/08/19 11:43:52;;;;;;;;;;;;;;;29.02;70.14;101420.97;5114354;28;20012;-33
2022/08/19 11:46:22;;;;;;;;;;;;;;;28.91;70.26;101425.09;5114833;28;19924;-29
2022/08/19 11:48:50;;;;;;;;;;;;;;;28.81;70.41;101426.75;5114629;28;19935;-33
2022/08/19 11:51:19;;;;;;;;;;;;;;;28.71;70.61;101422.63;5114785;28;20139;-29
2022/08/19 11:53:47;;;;;;;;;;;;;;;28.68;70.17;101426.31;5115621;28;19935;-38
2022/08/19 11:56:14;;;;;;;;;;;;;;;28.69;72.38;101425.06;5115403;28;19930;-32
2022/08/19 11:58:42;;;;;;;;;;;;;;;29.03;73.62;101421.81;5114286;28;19927;-33
2022/08/19 12:01:11;;;;;;;;;;;;;;;29.35;71.11;101428.34;5115566;28;19928;-34
2022/08/19 12:03:40;;;;;;;;;;;;;;;29.34;67.38;101431.63;5114887;28;19928;-36
2022/08/19 12:06:09;;;;;;;;;;;;;;;29.40;68.68;101432.84;5102868;28;19969;-32
2022/08/19 12:08:36;;;;;;;;;;;;;;;29.20;67.15;101437.38;5114870;28;19938;-35
2022/08/19 12:11:07;;;;;;;;;;;;;;;28.98;69.39;101433.69;5114840;28;19924;-36
2022/08/19 12:13:35;;;;;;;;;;;;;;;28.85;67.43;101444.81;5114363;27;19923;-39
2022/08/19 12:16:08;;;;;;;;;;;;;;;28.55;67.92;101441.47;5114268;28;19927;-31
2022/08/19 12:18:35;;;;;;;;;;;;;;;28.26;70.13;101441.44;5112922;28;20395;-40
2022/08/19 12:21:04;;;;;;;;;;;;;;;27.89;70.92;101438.81;5114485;27;19927;-40
2022/08/19 12:23:32;;;;;;;;;;;;;;;27.54;72.02;101436.59;5114545;28;20381;-36
2022/08/19 12:26:00;;;;;;;;;;;;;;;27.31;74.40;101431.13;5113861;28;20372;-35
2022/08/19 12:28:27;;;;;;;;;;;;;;;27.27;77.21;101440.91;5113153;28;19931;-35
2022/08/19 12:30:56;;;;;;;;;;;;;;;27.30;76.86;101440.13;5114192;28;19930;-36
2022/08/19 12:33:27;;;;;;;;;;;;;;;27.19;77.19;101430.63;5112826;28;19930;-36
2022/08/19 12:35:55;;;;;;;;;;;;;;;27.00;78.24;101434.59;5114397;28;19923;-32
2022/08/19 12:38:24;;;;;;;;;;;;;;;26.93;81.05;101432.47;5113871;28;19931;-31
2022/08/19 12:40:52;;;;;;;;;;;;;;;26.93;81.92;101421.00;5113785;28;20023;-37
2022/08/19 12:43:26;;;;;;;;;;;;;;;27.02;82.47;101421.50;5113780;28;19924;-31
2022/08/19 12:45:54;;;;;;;;;;;;;;;27.10;80.58;101425.25;5113640;28;19930;-30
2022/08/19 12:48:23;;;;;;;;;;;;;;;26.99;79.54;101416.56;5112222;27;19928;-42
2022/08/19 12:51:01;;;;;;;;;;;;;;;26.84;79.65;101420.53;5114038;28;19934;-36
2022/08/19 12:53:30;;;;;;;;;;;;;;;26.65;80.82;101417.91;5114028;28;20300;-30
2022/08/19 12:55:59;;;;;;;;;;;;;;;26.61;81.54;101415.00;5113204;28;19927;-30
2022/08/19 12:58:28;;;;;;;;;;;;;;;26.48;81.85;101416.53;5113521;28;20279;-36
2022/08/19 13:00:55;;;;;;;;;;;;;;;26.52;83.16;101411.66;5113196;28;19923;-30
2022/08/19 13:03:28;;;;;;;;;;;;;;;26.56;82.05;101417.44;5113176;28;19928;-32
2022/08/19 13:05:56;;;;;;;;;;;;;;;26.55;82.06;101415.78;5113442;28;19940;-39